createdAt,value
2018-08-11T00:00:27.083Z,2.83
2018-08-11T00:02:56.436Z,3.03
2018-08-11T00:05:25.810Z,6.10
2018-08-11T00:07:55.124Z,2.10
2018-08-11T00:10:24.698Z,1.53
2018-08-11T00:12:53.852Z,2.63
2018-08-11T00:15:22.908Z,3.23
2018-08-11T00:17:52.226Z,4.70
2018-08-11T00:20:25.749Z,2.37
2018-08-11T00:22:55.220Z,3.50
2018-08-11T00:25:24.297Z,3.63
2018-08-11T00:27:53.846Z,3.97
2018-08-11T00:30:23.032Z,7.53
2018-08-11T00:32:52.162Z,2.60
2018-08-11T00:35:21.616Z,3.67
2018-08-11T00:37:50.777Z,2.17
2018-08-11T00:40:20.661Z,5.97
2018-08-11T00:42:51.073Z,5.07
2018-08-11T00:45:20.636Z,3.70
2018-08-11T00:47:49.714Z,4.40
2018-08-11T00:50:25.067Z,2.40
2018-08-11T00:52:54.726Z,5.33
2018-08-11T00:55:23.846Z,5.97
2018-08-11T00:57:52.947Z,4.27
2018-08-11T01:00:22.618Z,6.87
2018-08-11T01:02:51.727Z,5.23
2018-08-11T01:05:21.560Z,6.17
2018-08-11T01:07:52.057Z,5.30
2018-08-11T01:10:21.282Z,4.93
2018-08-11T01:12:50.574Z,7.47
2018-08-11T01:15:23.606Z,5.60
2018-08-11T01:17:53.176Z,3.97
2018-08-11T01:20:22.276Z,4.00
2018-08-11T01:22:51.734Z,4.07
2018-08-11T01:25:20.853Z,4.87
2018-08-11T01:27:49.971Z,2.33
2018-08-11T01:30:22.120Z,5.60
2018-08-11T01:32:51.281Z,4.07
2018-08-11T01:35:20.406Z,3.83
2018-08-11T01:37:50.009Z,2.33
2018-08-11T01:40:19.852Z,4.97
2018-08-11T01:42:49.929Z,3.40
2018-08-11T01:45:19.592Z,4.93
2018-08-11T01:47:48.726Z,3.63
2018-08-11T01:50:18.009Z,2.20
2018-08-11T01:52:47.883Z,2.03
2018-08-11T01:55:18.806Z,3.10
2018-08-11T01:57:47.933Z,1.97
2018-08-11T02:00:17.601Z,1.60
2018-08-11T02:02:46.675Z,5.47
2018-08-11T02:05:15.810Z,1.57
2018-08-11T02:07:45.402Z,2.53
2018-08-11T02:10:20.687Z,4.03
2018-08-11T02:12:50.093Z,4.27
2018-08-11T02:15:19.197Z,8.17
2018-08-11T02:17:48.641Z,10.23
2018-08-11T02:20:19.218Z,6.43
2018-08-11T02:22:49.687Z,4.27
2018-08-11T02:25:18.806Z,2.10
2018-08-11T02:27:47.923Z,1.60
2018-08-11T02:30:18.220Z,2.20
2018-08-11T02:32:47.386Z,1.40
2018-08-11T02:35:16.781Z,2.43
2018-08-11T02:37:46.308Z,2.90
2018-08-11T02:40:16.989Z,3.77
2018-08-11T02:42:46.172Z,3.13
2018-08-11T02:45:16.841Z,2.60
2018-08-11T02:47:46.690Z,1.90
2018-08-11T02:50:16.046Z,2.17
2018-08-11T02:52:45.165Z,1.73
2018-08-11T02:55:14.269Z,1.90
2018-08-11T02:57:43.793Z,1.57
2018-08-11T03:00:13.340Z,2.40
2018-08-11T03:02:42.641Z,2.97
2018-08-11T03:05:12.506Z,1.77
2018-08-11T03:07:41.606Z,2.17
2018-08-11T03:10:12.940Z,1.50
2018-08-11T03:12:42.583Z,3.57
2018-08-11T03:15:12.974Z,2.17
2018-08-11T03:17:42.429Z,4.00
2018-08-11T03:20:14.088Z,2.03
2018-08-11T03:22:43.582Z,2.33
2018-08-11T03:25:13.138Z,3.37
2018-08-11T03:27:45.047Z,2.10
2018-08-11T03:30:14.285Z,2.50
2018-08-11T03:32:43.347Z,1.80
2018-08-11T03:35:12.728Z,1.70
2018-08-11T03:37:42.618Z,2.20
2018-08-11T03:40:12.423Z,3.80
2018-08-11T03:42:42.090Z,2.23
2018-08-11T03:45:11.569Z,2.77
2018-08-11T03:47:40.912Z,2.33
2018-08-11T03:50:09.995Z,2.70
2018-08-11T03:52:39.110Z,2.53
2018-08-11T03:55:08.286Z,1.80
2018-08-11T03:57:37.533Z,3.77
2018-08-11T04:00:11.431Z,1.90
2018-08-11T04:02:40.875Z,3.03
2018-08-11T04:05:10.116Z,2.07
2018-08-11T04:07:39.210Z,2.37
2018-08-11T04:10:08.911Z,3.63
2018-08-11T04:12:38.752Z,4.40
2018-08-11T04:15:07.887Z,3.10
2018-08-11T04:17:40.114Z,6.10
2018-08-11T04:20:11.661Z,4.07
2018-08-11T04:22:40.983Z,3.17
2018-08-11T04:25:10.400Z,3.53
2018-08-11T04:27:39.614Z,3.90
2018-08-11T04:30:10.504Z,4.60
2018-08-11T04:32:39.839Z,3.77
2018-08-11T04:35:08.983Z,3.43
2018-08-11T04:37:38.572Z,6.53
2018-08-11T04:40:07.668Z,5.60
2018-08-11T04:42:36.695Z,4.67
2018-08-11T04:45:07.644Z,3.20
2018-08-11T04:47:36.716Z,7.17
2018-08-11T04:50:08.371Z,2.60
2018-08-11T04:52:37.444Z,4.87
2018-08-11T04:55:07.407Z,4.17
2018-08-11T04:57:37.126Z,5.27
2018-08-11T05:00:07.949Z,5.73
2018-08-11T05:02:37.309Z,7.23
2018-08-11T05:05:09.426Z,4.73
2018-08-11T05:07:39.015Z,7.77
2018-08-11T05:10:09.805Z,9.40
2018-08-11T05:12:38.878Z,5.90
2018-08-11T05:15:09.565Z,5.93
2018-08-11T05:17:38.907Z,7.43
2018-08-11T05:20:09.059Z,7.53
2018-08-11T05:22:38.129Z,6.13
2018-08-11T05:25:08.504Z,5.77
2018-08-11T05:27:55.046Z,7.77
2018-08-11T05:30:40.239Z,4.53
2018-08-11T05:33:10.674Z,7.30
2018-08-11T05:35:40.228Z,5.57
2018-08-11T05:38:09.294Z,8.67
2018-08-11T05:40:38.521Z,6.80
2018-08-11T05:43:08.856Z,12.17
2018-08-11T05:45:37.916Z,5.83
2018-08-11T05:48:09.290Z,8.60
2018-08-11T05:50:38.329Z,6.87
2018-08-11T05:53:08.561Z,7.57
2018-08-11T05:55:38.357Z,9.10
2018-08-11T05:58:22.201Z,8.07
2018-08-11T06:00:53.914Z,7.80
2018-08-11T06:03:24.379Z,12.10
2018-08-11T06:05:53.668Z,8.90
2018-08-11T06:08:23.651Z,7.33
2018-08-11T06:10:52.540Z,12.83
2018-08-11T06:13:21.601Z,10.47
2018-08-11T06:15:51.350Z,7.97
2018-08-11T06:18:20.562Z,8.57
2018-08-11T06:20:49.885Z,7.43
2018-08-11T06:23:19.471Z,7.90
2018-08-11T06:25:48.877Z,10.40
2018-08-11T06:28:17.979Z,10.03
2018-08-11T06:30:47.260Z,7.77
2018-08-11T06:33:16.372Z,8.67
2018-08-11T06:35:45.462Z,8.07
2018-08-11T06:38:20.902Z,6.60
2018-08-11T06:40:50.107Z,7.43
2018-08-11T06:43:19.315Z,9.57
2018-08-11T06:45:48.776Z,10.30
2018-08-11T06:48:17.878Z,8.07
2018-08-11T06:50:46.996Z,7.10
2018-08-11T06:53:16.321Z,10.30
2018-08-11T06:55:45.576Z,10.43
2018-08-11T06:58:14.958Z,9.77
2018-08-11T07:00:44.342Z,10.97
2018-08-11T07:03:13.472Z,8.50
2018-08-11T07:05:42.597Z,9.10
2018-08-11T07:08:12.066Z,6.07
2018-08-11T07:10:41.119Z,9.10
2018-08-11T07:13:10.576Z,7.07
2018-08-11T07:15:40.133Z,7.37
2018-08-11T07:18:09.363Z,7.30
2018-08-11T07:20:38.452Z,6.40
2018-08-11T07:23:07.604Z,11.27
2018-08-11T07:25:36.858Z,4.10
2018-08-11T07:28:06.075Z,9.53
2018-08-11T07:30:35.142Z,5.60
2018-08-11T07:33:04.260Z,5.60
2018-08-11T07:35:37.119Z,5.60
2018-08-11T07:38:06.344Z,9.87
2018-08-11T07:40:35.414Z,5.70
2018-08-11T07:43:05.043Z,4.97
2018-08-11T07:45:34.502Z,7.10
2018-08-11T07:48:03.637Z,4.63
2018-08-11T07:50:34.990Z,7.90
2018-08-11T07:53:04.169Z,6.90
2018-08-11T07:55:33.242Z,9.23
2018-08-11T07:58:02.940Z,5.23
2018-08-11T08:00:32.023Z,7.03
2018-08-11T08:03:01.111Z,4.40
2018-08-11T08:05:30.581Z,5.60
2018-08-11T08:07:59.704Z,5.70
2018-08-11T08:10:28.852Z,4.77
2018-08-11T08:12:58.202Z,3.20
2018-08-11T08:15:27.389Z,5.10
2018-08-11T08:17:56.989Z,6.13
2018-08-11T08:20:26.222Z,5.67
2018-08-11T08:22:55.540Z,4.30
2018-08-11T08:25:24.876Z,4.03
2018-08-11T08:27:53.924Z,3.03
2018-08-11T08:30:23.495Z,3.90
2018-08-11T08:32:52.589Z,5.53
2018-08-11T08:35:21.746Z,5.27
2018-08-11T08:37:51.182Z,2.70
2018-08-11T08:40:20.278Z,5.60
2018-08-11T08:42:49.683Z,4.40
2018-08-11T08:45:19.372Z,6.47
2018-08-11T08:47:48.541Z,2.83
2018-08-11T08:50:17.873Z,5.03
2018-08-11T08:52:46.951Z,4.63
2018-08-11T08:55:16.010Z,2.57
2018-08-11T08:57:45.268Z,2.70
2018-08-11T09:00:14.377Z,4.83
2018-08-11T09:02:43.662Z,6.57
2018-08-11T09:05:12.878Z,5.47
2018-08-11T09:07:41.983Z,4.67
2018-08-11T09:10:12.193Z,4.07
2018-08-11T09:12:41.577Z,2.77
2018-08-11T09:15:10.654Z,3.50
2018-08-11T09:17:39.873Z,2.67
2018-08-11T09:20:09.032Z,1.57
2018-08-11T09:22:38.469Z,4.03
2018-08-11T09:25:07.554Z,2.03
2018-08-11T09:27:36.696Z,3.67
2018-08-11T09:30:06.835Z,2.37
2018-08-11T09:32:35.981Z,3.53
2018-08-11T09:35:05.273Z,5.70
2018-08-11T09:37:34.726Z,2.73
2018-08-11T09:40:03.943Z,6.33
2018-08-11T09:42:33.039Z,2.50
2018-08-11T09:45:02.711Z,5.33
2018-08-11T09:47:31.814Z,3.03
2018-08-11T09:50:00.888Z,7.07
2018-08-11T09:52:30.474Z,7.77
2018-08-11T09:54:59.580Z,3.17
2018-08-11T09:57:28.684Z,2.97
2018-08-11T09:59:57.870Z,2.43
2018-08-11T10:02:26.996Z,4.07
2018-08-11T10:04:56.822Z,7.87
2018-08-11T10:07:25.989Z,3.23
2018-08-11T10:09:55.114Z,4.13
2018-08-11T10:12:24.377Z,2.33
2018-08-11T10:14:53.699Z,2.80
2018-08-11T10:17:22.986Z,2.00
2018-08-11T10:19:52.169Z,3.70
2018-08-11T10:22:21.238Z,4.17
2018-08-11T10:24:50.776Z,3.07
2018-08-11T10:27:19.945Z,3.17
2018-08-11T10:29:49.065Z,4.00
2018-08-11T10:32:18.460Z,4.23
2018-08-11T10:34:47.541Z,4.73
2018-08-11T10:37:16.604Z,4.60
2018-08-11T10:39:46.286Z,1.53
2018-08-11T10:42:15.990Z,2.20
2018-08-11T10:44:45.152Z,3.70
2018-08-11T10:47:14.566Z,3.30
2018-08-11T10:49:43.817Z,4.07
2018-08-11T10:52:13.081Z,3.33
2018-08-11T10:54:42.176Z,2.20
2018-08-11T10:57:11.927Z,4.30
2018-08-11T10:59:41.550Z,2.03
2018-08-11T11:02:10.640Z,6.00
2018-08-11T11:04:39.773Z,2.73
2018-08-11T11:07:15.005Z,2.40
2018-08-11T11:09:44.372Z,2.53
2018-08-11T11:12:13.624Z,3.03
2018-08-11T11:14:42.724Z,2.73
2018-08-11T11:17:11.861Z,1.77
2018-08-11T11:19:41.524Z,2.77
2018-08-11T11:22:10.627Z,3.23
2018-08-11T11:24:39.747Z,1.77
2018-08-11T11:27:09.020Z,2.17
2018-08-11T11:29:38.212Z,2.23
2018-08-11T11:32:07.372Z,1.87
2018-08-11T11:34:36.729Z,2.20
2018-08-11T11:37:05.778Z,1.67
2018-08-11T11:39:34.856Z,3.00
2018-08-11T11:42:04.378Z,2.40
2018-08-11T11:44:34.133Z,3.43
2018-08-11T11:47:03.479Z,1.20
2018-08-11T11:49:32.995Z,3.00
2018-08-11T11:52:02.087Z,3.03
2018-08-11T11:54:31.164Z,6.23
2018-08-11T11:57:00.413Z,4.73
2018-08-11T11:59:29.629Z,5.70
2018-08-11T12:01:58.782Z,1.87
2018-08-11T12:04:27.873Z,2.73
2018-08-11T12:06:57.607Z,1.87
2018-08-11T12:09:26.692Z,2.17
2018-08-11T12:11:55.804Z,0.83
2018-08-11T12:14:25.180Z,1.83
2018-08-11T12:16:54.247Z,2.77
2018-08-11T12:19:23.341Z,1.83
2018-08-11T12:21:52.678Z,1.90
2018-08-11T12:24:21.771Z,2.00
2018-08-11T12:26:51.017Z,1.40
2018-08-11T12:29:20.566Z,3.13
2018-08-11T12:31:49.648Z,1.67
2018-08-11T12:34:18.760Z,2.63
2018-08-11T12:36:48.226Z,1.43
2018-08-11T12:39:17.349Z,1.97
2018-08-11T12:41:46.447Z,0.80
2018-08-11T12:44:15.682Z,1.23
2018-08-11T12:46:44.975Z,2.73
2018-08-11T12:49:15.199Z,3.43
2018-08-11T12:51:44.299Z,4.70
2018-08-11T12:54:13.397Z,1.80
2018-08-11T12:56:43.026Z,3.83
2018-08-11T12:59:12.471Z,3.27
2018-08-11T13:01:41.643Z,3.57
2018-08-11T13:04:10.671Z,2.63
2018-08-11T13:06:40.042Z,2.17
2018-08-11T13:09:10.936Z,8.37
2018-08-11T13:11:40.745Z,1.60
2018-08-11T13:14:09.884Z,3.23
2018-08-11T13:16:38.991Z,2.10
2018-08-11T13:19:08.316Z,3.77
2018-08-11T13:21:38.687Z,1.90
2018-08-11T13:24:07.843Z,3.40
2018-08-11T13:26:37.003Z,2.75
2018-08-11T13:29:06.177Z,1.70
2018-08-11T13:31:34.476Z,1.72
2018-08-11T13:34:03.379Z,2.17
2018-08-11T13:36:32.613Z,2.40
2018-08-11T13:39:01.775Z,2.33
2018-08-11T13:41:42.473Z,2.60
2018-08-11T13:44:11.667Z,2.60
2018-08-11T13:46:40.898Z,1.27
2018-08-11T13:49:10.478Z,2.70
2018-08-11T13:51:39.851Z,3.03
2018-08-11T13:54:08.944Z,3.73
2018-08-11T13:56:39.060Z,1.72
2018-08-11T13:59:08.429Z,2.40
2018-08-11T14:01:37.594Z,3.08
2018-08-11T14:04:07.115Z,2.60
2018-08-11T14:06:36.218Z,3.17
2018-08-11T14:09:07.759Z,3.27
2018-08-11T14:11:37.171Z,2.07
2018-08-11T14:14:06.480Z,1.77
2018-08-11T14:16:36.461Z,1.93
2018-08-11T14:19:06.327Z,3.30
2018-08-11T14:21:35.459Z,4.78
2018-08-11T14:24:04.839Z,2.83
2018-08-11T14:26:34.188Z,2.90
2018-08-11T14:29:03.258Z,3.20
2018-08-11T14:31:32.337Z,9.07
2018-08-11T14:34:02.890Z,1.60
2018-08-11T14:36:32.532Z,4.58
2018-08-11T14:39:01.636Z,1.63
2018-08-11T14:41:30.742Z,1.85
2018-08-11T14:44:00.208Z,1.67
2018-08-11T14:46:29.377Z,2.63
2018-08-11T14:48:58.624Z,3.40
2018-08-11T14:51:28.298Z,2.77
2018-08-11T14:53:57.393Z,1.20
2018-08-11T14:56:26.984Z,2.27
2018-08-11T14:58:56.110Z,1.60
2018-08-11T15:01:24.752Z,4.07
2018-08-11T15:03:54.295Z,1.67
2018-08-11T15:06:23.532Z,2.07
2018-08-11T15:08:52.924Z,2.00
2018-08-11T15:11:22.164Z,3.40
2018-08-11T15:13:51.344Z,2.43
2018-08-11T15:16:20.889Z,1.55
2018-08-11T15:18:49.927Z,2.27
2018-08-11T15:21:19.095Z,1.87
2018-08-11T15:23:48.369Z,1.57
2018-08-11T15:26:17.447Z,2.53
2018-08-11T15:28:46.687Z,2.90
2018-08-11T15:31:15.798Z,1.67
2018-08-11T15:33:44.905Z,1.60
2018-08-11T15:36:14.588Z,2.63
2018-08-11T15:38:43.968Z,2.47
2018-08-11T15:41:13.056Z,3.00
2018-08-11T15:43:42.214Z,1.73
2018-08-11T15:46:12.612Z,2.10
2018-08-11T15:48:41.730Z,3.00
2018-08-11T15:51:10.818Z,1.20
2018-08-11T15:53:40.726Z,1.93
2018-08-11T15:56:09.935Z,2.43
2018-08-11T15:58:39.017Z,2.63
2018-08-11T16:01:08.513Z,2.67
2018-08-11T16:03:37.989Z,2.63
2018-08-11T16:06:07.403Z,1.83
2018-08-11T16:08:36.539Z,1.30
2018-08-11T16:11:05.655Z,1.30
2018-08-11T16:13:35.000Z,3.00
2018-08-11T16:16:04.253Z,3.73
2018-08-11T16:18:33.351Z,1.97
2018-08-11T16:21:02.821Z,2.33
2018-08-11T16:23:31.928Z,1.10
2018-08-11T16:26:01.037Z,2.50
2018-08-11T16:28:30.503Z,2.67
2018-08-11T16:30:59.828Z,1.73
2018-08-11T16:33:28.870Z,1.70
2018-08-11T16:35:58.064Z,2.17
2018-08-11T16:38:27.175Z,2.53
2018-08-11T16:40:56.470Z,1.70
2018-08-11T16:43:26.006Z,1.40
2018-08-11T16:45:55.100Z,3.30
2018-08-11T16:48:24.171Z,3.40
2018-08-11T16:50:53.536Z,2.40
2018-08-11T16:53:22.676Z,3.07
2018-08-11T16:55:51.763Z,3.03
2018-08-11T16:58:21.473Z,2.53
2018-08-11T17:00:50.679Z,2.10
2018-08-11T17:03:19.711Z,1.53
2018-08-11T17:05:48.805Z,3.13
2018-08-11T17:08:18.059Z,2.63
2018-08-11T17:10:47.204Z,2.67
2018-08-11T17:13:16.463Z,2.53
2018-08-11T17:15:45.610Z,2.27
2018-08-11T17:18:14.685Z,2.33
2018-08-11T17:20:43.975Z,1.43
2018-08-11T17:23:13.073Z,2.67
2018-08-11T17:25:42.546Z,3.20
2018-08-11T17:28:11.640Z,3.00
2018-08-11T17:30:40.726Z,2.80
2018-08-11T17:33:09.980Z,2.43
2018-08-11T17:35:39.233Z,3.17
2018-08-11T17:38:08.345Z,1.37
2018-08-11T17:40:37.653Z,1.23
2018-08-11T17:43:06.952Z,2.70
2018-08-11T17:45:36.086Z,3.83
2018-08-11T17:48:05.352Z,2.87
2018-08-11T17:50:34.481Z,1.30
2018-08-11T17:53:05.462Z,1.70
2018-08-11T17:55:36.853Z,2.53
2018-08-11T17:58:07.860Z,1.87
2018-08-11T18:00:37.015Z,1.80
2018-08-11T18:03:06.671Z,1.73
2018-08-11T18:05:36.306Z,4.47
2018-08-11T18:08:05.545Z,3.00
2018-08-11T18:10:34.614Z,3.47
2018-08-11T18:13:03.688Z,2.20
2018-08-11T18:15:33.143Z,2.27
2018-08-11T18:18:02.238Z,6.70
2018-08-11T18:20:31.283Z,2.10
2018-08-11T18:23:01.870Z,3.07
2018-08-11T18:25:31.002Z,2.50
2018-08-11T18:28:00.190Z,4.40
2018-08-11T18:30:29.265Z,2.80
2018-08-11T18:33:00.308Z,2.67
2018-08-11T18:35:29.412Z,3.27
2018-08-11T18:37:58.609Z,3.80
2018-08-11T18:40:28.286Z,3.63
2018-08-11T18:42:57.391Z,2.43
2018-08-11T18:45:26.480Z,4.97
2018-08-11T18:47:55.617Z,2.53
2018-08-11T18:50:24.709Z,2.07
2018-08-11T18:52:53.739Z,3.43
2018-08-11T18:55:23.006Z,2.70
2018-08-11T18:57:52.133Z,3.53
2018-08-11T19:00:21.341Z,4.17
2018-08-11T19:02:50.601Z,3.90
2018-08-11T19:05:19.695Z,4.13
2018-08-11T19:07:49.095Z,5.77
2018-08-11T19:10:18.590Z,5.50
2018-08-11T19:12:47.700Z,5.37
2018-08-11T19:15:16.796Z,4.00
2018-08-11T19:17:46.277Z,3.83
2018-08-11T19:20:15.902Z,5.07
2018-08-11T19:22:45.099Z,6.20
2018-08-11T19:25:14.600Z,4.70
2018-08-11T19:27:44.372Z,6.83
2018-08-11T19:30:19.242Z,4.47
2018-08-11T19:32:48.598Z,4.13
2018-08-11T19:35:17.643Z,4.97
2018-08-11T19:37:46.705Z,6.83
2018-08-11T19:40:17.218Z,7.53
2018-08-11T19:42:48.364Z,7.10
2018-08-11T19:45:17.889Z,6.57
2018-08-11T19:47:47.015Z,6.37
2018-08-11T19:50:16.124Z,5.93
2018-08-11T19:52:45.708Z,5.43
2018-08-11T19:55:15.006Z,4.50
2018-08-11T19:57:44.209Z,3.10
2018-08-11T20:00:14.718Z,4.47
2018-08-11T20:02:43.963Z,4.77
2018-08-11T20:05:13.102Z,3.73
2018-08-11T20:07:42.529Z,5.40
2018-08-11T20:10:11.672Z,3.43
2018-08-11T20:12:40.984Z,2.90
2018-08-11T20:15:10.681Z,4.33
2018-08-11T20:17:45.673Z,4.50
2018-08-11T20:20:14.779Z,2.77
2018-08-11T20:22:43.889Z,6.40
2018-08-11T20:25:13.232Z,2.77
2018-08-11T20:27:42.300Z,6.47
2018-08-11T20:30:11.867Z,2.70
2018-08-11T20:32:41.558Z,4.80
2018-08-11T20:35:10.744Z,6.47
2018-08-11T20:37:39.904Z,5.40
2018-08-11T20:40:10.263Z,5.30
2018-08-11T20:42:39.322Z,5.47
2018-08-11T20:45:09.533Z,4.57
2018-08-11T20:47:38.909Z,5.80
2018-08-11T20:50:08.786Z,5.87
2018-08-11T20:52:37.926Z,5.63
2018-08-11T20:55:08.008Z,3.03
2018-08-11T20:57:37.352Z,5.80
2018-08-11T21:00:09.192Z,4.20
2018-08-11T21:02:38.485Z,3.60
2018-08-11T21:05:11.192Z,4.60
2018-08-11T21:07:42.660Z,5.03
2018-08-11T21:10:14.315Z,3.30
2018-08-11T21:12:44.283Z,5.07
2018-08-11T21:15:14.022Z,4.50
2018-08-11T21:17:43.258Z,8.33
2018-08-11T21:20:14.495Z,6.73
2018-08-11T21:22:45.796Z,4.80
2018-08-11T21:25:16.275Z,7.17
2018-08-11T21:27:46.550Z,4.60
2018-08-11T21:30:15.946Z,5.67
2018-08-11T21:32:45.069Z,4.10
2018-08-11T21:35:15.355Z,7.07
2018-08-11T21:37:44.562Z,3.80
2018-08-11T21:40:14.923Z,4.70
2018-08-11T21:42:44.485Z,5.57
2018-08-11T21:45:19.428Z,4.07
2018-08-11T21:47:48.727Z,6.50
2018-08-11T21:50:17.940Z,4.67
2018-08-11T21:52:47.165Z,6.27
2018-08-11T21:55:19.095Z,7.33
2018-08-11T21:57:48.494Z,6.17
2018-08-11T22:00:33.374Z,8.67
2018-08-11T22:03:02.719Z,4.93
2018-08-11T22:05:32.040Z,8.13
2018-08-11T22:08:02.405Z,6.87
2018-08-11T22:10:31.741Z,5.47
2018-08-11T22:13:03.450Z,5.23
2018-08-11T22:15:32.637Z,4.80
2018-08-11T22:18:02.027Z,4.63
2018-08-11T22:20:31.121Z,6.73
2018-08-11T22:23:00.258Z,4.23
2018-08-11T22:25:29.838Z,5.67
2018-08-11T22:27:58.988Z,6.77
2018-08-11T22:30:28.092Z,7.90
2018-08-11T22:32:57.381Z,8.30
2018-08-11T22:35:26.544Z,5.23
2018-08-11T22:37:55.825Z,5.73
2018-08-11T22:40:25.017Z,6.43
2018-08-11T22:42:54.657Z,5.20
2018-08-11T22:45:23.948Z,4.10
2018-08-11T22:47:53.147Z,3.47
2018-08-11T22:50:22.273Z,5.60
2018-08-11T22:52:52.024Z,3.70
2018-08-11T22:55:21.145Z,4.37
2018-08-11T22:57:50.267Z,5.27
2018-08-11T23:00:21.003Z,3.33
2018-08-11T23:02:50.217Z,5.10
2018-08-11T23:05:20.676Z,3.90
2018-08-11T23:07:50.002Z,7.00
2018-08-11T23:10:19.594Z,4.57
2018-08-11T23:12:48.691Z,4.47
2018-08-11T23:15:19.089Z,3.93
2018-08-11T23:17:49.974Z,6.30
2018-08-11T23:20:19.186Z,4.20
2018-08-11T23:22:48.308Z,4.80
2018-08-11T23:25:18.061Z,3.53
2018-08-11T23:27:47.310Z,4.03
2018-08-11T23:30:17.667Z,6.23
2018-08-11T23:32:47.201Z,3.67
2018-08-11T23:35:16.343Z,4.53
2018-08-11T23:37:45.431Z,5.60
2018-08-11T23:40:15.205Z,5.13
2018-08-11T23:42:44.301Z,3.87
2018-08-11T23:45:15.580Z,4.30
2018-08-11T23:47:44.739Z,5.47
2018-08-11T23:50:14.889Z,5.40
2018-08-11T23:52:45.265Z,5.63
2018-08-11T23:55:15.120Z,5.07
2018-08-11T23:57:44.289Z,5.53
